createdAt,value
2018-07-19T00:01:27.180Z,3.13
2018-07-19T00:03:55.490Z,3.30
2018-07-19T00:06:23.764Z,3.07
2018-07-19T00:08:51.871Z,3.50
2018-07-19T00:11:20.020Z,3.43
2018-07-19T00:13:48.100Z,3.17
2018-07-19T00:16:16.266Z,3.43
2018-07-19T00:18:44.370Z,3.30
2018-07-19T00:21:12.431Z,3.50
2018-07-19T00:23:40.507Z,3.53
2018-07-19T00:26:09.259Z,3.33
2018-07-19T00:28:37.316Z,3.53
2018-07-19T00:31:05.636Z,3.63
2018-07-19T00:33:33.821Z,3.47
2018-07-19T00:36:01.999Z,3.83
2018-07-19T00:38:30.509Z,3.50
2018-07-19T00:40:58.668Z,4.40
2018-07-19T00:43:26.875Z,4.47
2018-07-19T00:45:55.048Z,4.83
2018-07-19T00:48:23.102Z,4.70
2018-07-19T00:50:51.131Z,5.20
2018-07-19T00:53:19.203Z,5.40
2018-07-19T00:55:48.290Z,5.47
2018-07-19T00:58:16.381Z,5.87
2018-07-19T01:00:44.407Z,6.73
2018-07-19T01:03:12.455Z,6.30
2018-07-19T01:05:40.491Z,6.23
2018-07-19T01:08:08.562Z,5.47
2018-07-19T01:10:36.631Z,5.93
2018-07-19T01:13:04.971Z,5.47
2018-07-19T01:15:33.021Z,5.73
2018-07-19T01:18:01.073Z,6.13
2018-07-19T01:20:29.141Z,4.67
2018-07-19T01:22:57.223Z,5.50
2018-07-19T01:25:25.275Z,5.13
2018-07-19T01:27:53.571Z,5.67
2018-07-19T01:30:21.619Z,6.00
2018-07-19T01:32:49.699Z,5.93
2018-07-19T01:35:17.747Z,4.80
2018-07-19T01:37:45.808Z,5.50
2018-07-19T01:40:13.906Z,5.53
2018-07-19T01:42:44.911Z,5.20
2018-07-19T01:45:13.671Z,4.70
2018-07-19T01:47:42.052Z,4.83
2018-07-19T01:50:10.956Z,4.90
2018-07-19T01:52:39.159Z,5.07
2018-07-19T01:55:07.966Z,4.80
2018-07-19T01:57:36.278Z,5.50
2018-07-19T02:00:04.997Z,5.00
2018-07-19T02:02:33.039Z,5.67
2018-07-19T02:05:01.325Z,5.73
2018-07-19T02:07:29.389Z,5.97
2018-07-19T02:09:57.453Z,4.87
2018-07-19T02:12:25.559Z,5.23
2018-07-19T02:14:53.657Z,5.10
2018-07-19T02:17:21.883Z,5.90
2018-07-19T02:19:49.987Z,5.80
2018-07-19T02:22:18.055Z,5.83
2018-07-19T02:24:46.132Z,5.20
2018-07-19T02:27:14.235Z,5.33
2018-07-19T02:29:42.338Z,5.00
2018-07-19T02:32:10.427Z,4.90
2018-07-19T02:34:38.511Z,5.10
2018-07-19T02:37:06.603Z,4.90
2018-07-19T02:39:34.711Z,4.77
2018-07-19T02:42:02.833Z,5.23
2018-07-19T02:44:30.955Z,5.30
2018-07-19T02:46:59.377Z,5.20
2018-07-19T02:49:27.532Z,4.80
2018-07-19T02:51:55.940Z,5.20
2018-07-19T02:54:24.033Z,5.10
2018-07-19T02:56:52.100Z,4.97
2018-07-19T02:59:20.167Z,5.37
2018-07-19T03:01:48.240Z,5.13
2018-07-19T03:04:16.319Z,4.73
2018-07-19T03:06:44.390Z,4.67
2018-07-19T03:09:12.450Z,5.00
2018-07-19T03:11:42.791Z,5.23
2018-07-19T03:14:10.883Z,5.50
2018-07-19T03:16:38.959Z,4.60
2018-07-19T03:19:07.043Z,5.13
2018-07-19T03:21:35.109Z,5.07
2018-07-19T03:24:03.203Z,5.07
2018-07-19T03:26:31.285Z,4.90
2018-07-19T03:28:59.623Z,5.40
2018-07-19T03:31:27.704Z,4.37
2018-07-19T03:33:55.801Z,5.07
2018-07-19T03:36:23.895Z,4.63
2018-07-19T03:38:51.969Z,4.80
2018-07-19T03:41:20.032Z,4.40
2018-07-19T03:43:48.267Z,4.83
2018-07-19T03:46:16.319Z,4.50
2018-07-19T03:48:44.428Z,5.80
2018-07-19T03:51:12.728Z,4.70
2018-07-19T03:53:40.800Z,5.17
2018-07-19T03:56:08.872Z,4.20
2018-07-19T03:58:36.955Z,4.27
2018-07-19T04:01:05.017Z,4.60
2018-07-19T04:03:33.291Z,4.30
2018-07-19T04:06:01.392Z,4.63
2018-07-19T04:08:29.495Z,4.73
2018-07-19T04:10:57.588Z,4.70
2018-07-19T04:13:25.667Z,4.87
2018-07-19T04:15:53.764Z,4.50
2018-07-19T04:18:21.821Z,4.93
2018-07-19T04:20:49.895Z,5.03
2018-07-19T04:23:17.994Z,5.43
2018-07-19T04:25:46.044Z,4.83
2018-07-19T04:28:14.116Z,5.10
2018-07-19T04:30:42.216Z,5.37
2018-07-19T04:33:10.325Z,5.40
2018-07-19T04:35:38.375Z,5.27
2018-07-19T04:38:06.503Z,5.00
2018-07-19T04:40:34.516Z,5.00
2018-07-19T04:43:02.640Z,4.80
2018-07-19T04:45:30.704Z,4.13
2018-07-19T04:47:58.751Z,4.28
2018-07-19T04:50:26.815Z,4.67
2018-07-19T04:52:54.880Z,4.70
2018-07-19T04:55:22.952Z,4.75
2018-07-19T04:57:51.026Z,4.80
2018-07-19T05:00:19.132Z,4.40
2018-07-19T05:02:47.205Z,4.72
2018-07-19T05:05:15.291Z,4.25
2018-07-19T05:07:43.404Z,4.42
2018-07-19T05:10:11.483Z,4.00
2018-07-19T05:12:39.547Z,3.95
2018-07-19T05:15:08.003Z,3.65
2018-07-19T05:17:36.219Z,3.70
2018-07-19T05:20:04.352Z,4.25
2018-07-19T05:22:32.423Z,4.30
2018-07-19T05:25:00.533Z,3.80
2018-07-19T05:27:28.592Z,3.92
2018-07-19T05:29:56.679Z,4.20
2018-07-19T05:32:24.754Z,4.12
2018-07-19T05:34:52.819Z,4.17
2018-07-19T05:37:20.902Z,3.98
2018-07-19T05:39:48.963Z,3.70
2018-07-19T05:42:17.066Z,4.70
2018-07-19T05:44:45.112Z,3.60
2018-07-19T05:47:13.336Z,4.28
2018-07-19T05:49:42.383Z,3.87
2018-07-19T05:52:10.707Z,3.35
2018-07-19T05:54:38.858Z,3.50
2018-07-19T05:57:06.919Z,3.42
2018-07-19T05:59:35.032Z,3.92
2018-07-19T06:02:03.095Z,3.47
2018-07-19T06:04:31.175Z,3.52
2018-07-19T06:06:59.459Z,3.55
2018-07-19T06:09:27.495Z,3.65
2018-07-19T06:11:55.595Z,3.58
2018-07-19T06:14:23.692Z,2.77
2018-07-19T06:16:51.766Z,3.00
2018-07-19T06:19:19.809Z,3.87
2018-07-19T06:21:47.875Z,2.75
2018-07-19T06:24:16.175Z,2.92
2018-07-19T06:26:44.223Z,2.67
2018-07-19T06:29:12.339Z,2.27
2018-07-19T06:31:40.438Z,2.30
2018-07-19T06:34:09.516Z,2.95
2018-07-19T06:36:37.592Z,2.52
2018-07-19T06:39:07.330Z,2.12
2018-07-19T06:41:35.431Z,2.60
2018-07-19T06:44:03.480Z,2.70
2018-07-19T06:46:31.563Z,3.15
2018-07-19T06:48:59.599Z,2.40
2018-07-19T06:51:27.719Z,2.65
2018-07-19T06:53:55.784Z,2.90
2018-07-19T06:56:23.996Z,2.92
2018-07-19T06:58:52.181Z,2.45
2018-07-19T07:01:20.222Z,2.33
2018-07-19T07:03:48.298Z,2.47
2018-07-19T07:06:16.392Z,2.67
2018-07-19T07:08:44.513Z,2.40
2018-07-19T07:11:12.580Z,2.40
2018-07-19T07:13:40.623Z,2.35
2018-07-19T07:16:08.723Z,2.87
2018-07-19T07:18:36.814Z,2.50
2018-07-19T07:21:04.969Z,2.67
2018-07-19T07:23:33.020Z,3.12
2018-07-19T07:26:01.108Z,2.35
2018-07-19T07:28:29.130Z,2.30
2018-07-19T07:30:57.407Z,2.60
2018-07-19T07:33:25.478Z,2.00
2018-07-19T07:35:53.563Z,2.40
2018-07-19T07:38:21.662Z,2.40
2018-07-19T07:40:49.740Z,2.60
2018-07-19T07:43:17.859Z,2.85
2018-07-19T07:45:45.924Z,2.65
2018-07-19T07:48:14.034Z,2.60
2018-07-19T07:50:42.128Z,2.08
2018-07-19T07:53:10.209Z,2.60
2018-07-19T07:55:38.284Z,2.15
2018-07-19T07:58:06.336Z,2.67
2018-07-19T08:00:34.437Z,2.50
2018-07-19T08:03:02.503Z,2.02
2018-07-19T08:05:30.590Z,2.60
2018-07-19T08:07:58.668Z,2.58
2018-07-19T08:10:26.726Z,2.02
2018-07-19T08:12:54.824Z,2.10
2018-07-19T08:15:22.987Z,2.50
2018-07-19T08:17:51.072Z,2.50
2018-07-19T08:20:19.189Z,2.33
2018-07-19T08:22:47.294Z,2.40
2018-07-19T08:25:16.363Z,2.52
2018-07-19T08:27:44.412Z,2.67
2018-07-19T08:30:12.475Z,2.20
2018-07-19T08:32:41.374Z,2.58
2018-07-19T08:35:09.431Z,2.33
2018-07-19T08:37:38.116Z,2.30
2018-07-19T08:40:06.219Z,2.40
2018-07-19T08:42:34.348Z,2.60
2018-07-19T08:45:02.375Z,2.58
2018-07-19T08:47:31.478Z,2.87
2018-07-19T08:49:59.530Z,2.40
2018-07-19T08:52:27.600Z,2.20
2018-07-19T08:54:55.658Z,2.27
2018-07-19T08:57:23.712Z,2.37
2018-07-19T08:59:51.804Z,2.60
2018-07-19T09:02:19.943Z,2.77
2018-07-19T09:04:47.984Z,2.25
2018-07-19T09:07:16.035Z,2.47
2018-07-19T09:09:44.098Z,2.42
2018-07-19T09:12:12.189Z,2.62
2018-07-19T09:14:40.282Z,2.95
2018-07-19T09:17:08.351Z,3.50
2018-07-19T09:19:36.453Z,3.05
2018-07-19T09:22:04.532Z,2.95
2018-07-19T09:24:32.589Z,3.00
2018-07-19T09:27:00.685Z,3.08
2018-07-19T09:29:28.790Z,3.00
2018-07-19T09:31:56.862Z,2.50
2018-07-19T09:34:24.960Z,2.95
2018-07-19T09:36:53.079Z,2.58
2018-07-19T09:39:21.192Z,2.60
2018-07-19T09:41:49.259Z,2.75
2018-07-19T09:44:17.368Z,2.50
2018-07-19T09:46:45.426Z,2.67
2018-07-19T09:49:13.488Z,2.90
2018-07-19T09:51:41.695Z,2.92
2018-07-19T09:54:10.564Z,3.30
2018-07-19T09:56:38.644Z,2.95
2018-07-19T09:59:06.919Z,2.87
2018-07-19T10:01:34.968Z,2.90
2018-07-19T10:04:03.026Z,3.50
2018-07-19T10:06:31.119Z,3.42
2018-07-19T10:08:59.184Z,3.02
2018-07-19T10:11:27.365Z,2.90
2018-07-19T10:13:55.529Z,2.87
2018-07-19T10:16:23.694Z,3.17
2018-07-19T10:18:51.861Z,2.90
2018-07-19T10:21:20.091Z,3.02
2018-07-19T10:23:48.155Z,3.60
2018-07-19T10:26:16.212Z,3.65
2018-07-19T10:28:44.552Z,3.62
2018-07-19T10:31:12.614Z,3.37
2018-07-19T10:33:40.688Z,2.92
2018-07-19T10:36:08.762Z,3.10
2018-07-19T10:38:36.840Z,3.33
2018-07-19T10:41:05.047Z,3.55
2018-07-19T10:43:33.897Z,3.40
2018-07-19T10:46:02.167Z,3.10
2018-07-19T10:48:30.316Z,3.67
2018-07-19T10:50:58.778Z,3.70
2018-07-19T10:53:26.975Z,3.40
2018-07-19T10:55:55.028Z,3.58
2018-07-19T10:58:23.309Z,3.55
2018-07-19T11:00:51.584Z,3.52
2018-07-19T11:03:19.669Z,3.52
2018-07-19T11:05:47.796Z,3.90
2018-07-19T11:08:18.756Z,4.15
2018-07-19T11:10:46.963Z,3.25
2018-07-19T11:13:15.011Z,3.80
2018-07-19T11:15:43.066Z,3.22
2018-07-19T11:18:11.230Z,4.55
2018-07-19T11:20:39.330Z,3.75
2018-07-19T11:23:07.394Z,3.17
2018-07-19T11:25:35.497Z,3.20
2018-07-19T11:28:03.571Z,3.90
2018-07-19T11:30:31.607Z,3.30
2018-07-19T11:32:59.721Z,3.90
2018-07-19T11:35:27.843Z,3.83
2018-07-19T11:37:55.947Z,3.45
2018-07-19T11:40:26.160Z,3.62
2018-07-19T11:42:54.315Z,4.28
2018-07-19T11:45:22.536Z,3.20
2018-07-19T11:47:50.935Z,3.60
2018-07-19T11:50:19.047Z,3.65
2018-07-19T11:52:47.114Z,3.67
2018-07-19T11:55:15.186Z,3.47
2018-07-19T11:57:43.244Z,3.25
2018-07-19T12:00:11.383Z,3.08
2018-07-19T12:02:39.517Z,3.37
2018-07-19T12:05:07.728Z,2.90
2018-07-19T12:07:36.282Z,3.17
2018-07-19T12:10:04.750Z,3.75
2018-07-19T12:12:32.947Z,3.42
2018-07-19T12:15:01.302Z,3.40
2018-07-19T12:17:29.583Z,3.12
2018-07-19T12:19:57.883Z,3.27
2018-07-19T12:22:26.584Z,3.40
2018-07-19T12:24:54.823Z,3.30
2018-07-19T12:27:22.903Z,3.80
2018-07-19T12:29:51.262Z,3.50
2018-07-19T12:32:19.316Z,3.22
2018-07-19T12:34:47.379Z,3.30
2018-07-19T12:37:15.472Z,3.45
2018-07-19T12:39:44.403Z,3.50
2018-07-19T12:42:12.526Z,3.37
2018-07-19T12:44:40.591Z,3.42
2018-07-19T12:47:08.767Z,3.20
2018-07-19T12:49:36.844Z,3.40
2018-07-19T12:52:04.957Z,3.15
2018-07-19T12:54:32.979Z,3.35
2018-07-19T12:57:01.098Z,3.47
2018-07-19T12:59:29.112Z,3.50
2018-07-19T13:01:58.096Z,3.40
2018-07-19T13:04:27.028Z,3.95
2018-07-19T13:06:55.526Z,3.67
2018-07-19T13:09:23.680Z,3.12
2018-07-19T13:11:52.004Z,3.55
2018-07-19T13:14:20.075Z,3.67
2018-07-19T13:16:48.119Z,3.85
2018-07-19T13:19:16.190Z,3.52
2018-07-19T13:21:44.341Z,3.98
2018-07-19T13:24:12.454Z,3.92
2018-07-19T13:26:40.609Z,3.08
2018-07-19T13:29:08.794Z,3.85
2018-07-19T13:31:36.852Z,3.75
2018-07-19T13:34:04.983Z,3.35
2018-07-19T13:36:38.204Z,4.28
2018-07-19T13:39:07.792Z,3.65
2018-07-19T13:41:35.873Z,3.58
2018-07-19T13:44:04.195Z,3.70
2018-07-19T13:46:32.264Z,3.10
2018-07-19T13:49:00.351Z,3.72
2018-07-19T13:51:29.017Z,3.80
2018-07-19T13:54:15.709Z,3.33
2018-07-19T13:56:44.080Z,3.92
2018-07-19T13:59:12.311Z,3.95
2018-07-19T14:01:40.572Z,3.70
2018-07-19T14:04:09.054Z,3.75
2018-07-19T14:06:37.215Z,3.33
2018-07-19T14:09:13.096Z,3.60
2018-07-19T14:11:41.333Z,3.25
2018-07-19T14:14:09.649Z,3.67
2018-07-19T14:16:37.932Z,3.50
2018-07-19T14:19:06.375Z,3.75
2018-07-19T14:21:34.818Z,3.17
2018-07-19T14:24:02.916Z,3.33
2018-07-19T14:26:31.086Z,3.10
2018-07-19T14:28:59.154Z,3.20
2018-07-19T14:31:27.251Z,3.20
2018-07-19T14:33:55.388Z,3.52
2018-07-19T14:36:23.460Z,3.17
2018-07-19T14:38:51.776Z,2.92
2018-07-19T14:41:20.107Z,3.45
2018-07-19T14:43:48.252Z,3.60
2018-07-19T14:46:16.321Z,3.60
2018-07-19T14:48:44.384Z,3.30
2018-07-19T14:51:12.711Z,3.72
2018-07-19T14:53:41.107Z,3.00
2018-07-19T14:56:10.207Z,3.17
2018-07-19T14:58:38.487Z,3.42
2018-07-19T15:01:06.643Z,4.05
2018-07-19T15:03:34.994Z,4.58
2018-07-19T15:06:03.172Z,4.03
2018-07-19T15:08:31.210Z,3.60
2018-07-19T15:10:59.282Z,4.17
2018-07-19T15:13:27.476Z,3.70
2018-07-19T15:15:55.617Z,3.15
2018-07-19T15:18:23.711Z,3.17
2018-07-19T15:20:51.882Z,4.60
2018-07-19T15:23:20.002Z,22.20
2018-07-19T15:25:48.104Z,21.27
2018-07-19T15:28:16.236Z,9.40
2018-07-19T15:30:44.310Z,4.00
2018-07-19T15:33:12.376Z,4.45
2018-07-19T15:35:40.451Z,6.05
2018-07-19T15:38:08.504Z,3.52
2018-07-19T15:40:36.624Z,5.70
2018-07-19T15:43:04.914Z,4.10
2018-07-19T15:45:33.280Z,4.10
2018-07-19T15:48:01.410Z,4.83
2018-07-19T15:50:29.527Z,4.17
2018-07-19T15:52:57.712Z,3.27
2018-07-19T15:55:25.852Z,4.40
2018-07-19T15:57:54.135Z,7.42
2018-07-19T16:00:22.254Z,3.85
2018-07-19T16:02:50.382Z,3.83
2018-07-19T16:05:18.474Z,3.80
2018-07-19T16:07:46.607Z,3.30
2018-07-19T16:10:14.655Z,4.08
2018-07-19T16:12:42.699Z,3.75
2018-07-19T16:15:10.767Z,3.52
2018-07-19T16:17:38.967Z,3.67
2018-07-19T16:20:07.487Z,3.83
2018-07-19T16:22:35.951Z,3.83
2018-07-19T16:25:04.604Z,4.10
2018-07-19T16:27:32.940Z,4.00
2018-07-19T16:30:01.419Z,3.90
2018-07-19T16:32:30.200Z,4.78
2018-07-19T16:34:58.982Z,3.62
2018-07-19T16:37:27.054Z,4.28
2018-07-19T16:39:55.116Z,5.05
2018-07-19T16:42:23.954Z,4.30
2018-07-19T16:44:51.999Z,6.08
2018-07-19T16:47:20.161Z,4.25
2018-07-19T16:49:48.623Z,3.98
2018-07-19T16:52:16.756Z,4.03
2018-07-19T16:54:45.193Z,3.65
2018-07-19T16:57:13.235Z,3.77
2018-07-19T16:59:41.325Z,3.62
2018-07-19T17:02:09.529Z,3.50
2018-07-19T17:04:37.616Z,3.40
2018-07-19T17:07:05.728Z,4.10
2018-07-19T17:09:33.853Z,3.00
2018-07-19T17:12:01.893Z,3.10
2018-07-19T17:14:29.960Z,3.80
2018-07-19T17:16:58.251Z,3.60
2018-07-19T17:19:26.307Z,3.75
2018-07-19T17:21:54.405Z,3.87
2018-07-19T17:24:22.486Z,3.62
2018-07-19T17:26:50.580Z,3.60
2018-07-19T17:29:18.808Z,3.67
2018-07-19T17:31:46.884Z,3.47
2018-07-19T17:34:14.950Z,3.30
2018-07-19T17:36:43.362Z,3.30
2018-07-19T17:39:12.599Z,3.77
2018-07-19T17:41:41.268Z,3.65
2018-07-19T17:44:09.354Z,3.45
2018-07-19T17:46:37.426Z,4.00
2018-07-19T17:49:06.318Z,3.67
2018-07-19T17:51:34.478Z,3.30
2018-07-19T17:54:02.563Z,4.05
2018-07-19T17:56:30.686Z,4.20
2018-07-19T17:58:58.723Z,4.25
2018-07-19T18:01:26.830Z,3.40
2018-07-19T18:03:54.884Z,3.90
2018-07-19T18:06:23.098Z,3.80
2018-07-19T18:08:51.948Z,3.50
2018-07-19T18:11:20.229Z,3.62
2018-07-19T18:13:48.400Z,3.40
2018-07-19T18:16:16.826Z,3.42
2018-07-19T18:18:45.239Z,3.47
2018-07-19T18:21:13.423Z,3.60
2018-07-19T18:23:41.652Z,4.03
2018-07-19T18:26:09.971Z,3.70
2018-07-19T18:28:38.087Z,4.00
2018-07-19T18:31:07.567Z,3.75
2018-07-19T18:33:36.393Z,4.42
2018-07-19T18:36:05.221Z,4.40
2018-07-19T18:38:36.108Z,4.22
2018-07-19T18:41:05.542Z,3.90
2018-07-19T18:43:34.262Z,4.33
2018-07-19T18:46:06.225Z,3.95
2018-07-19T18:48:35.406Z,3.65
2018-07-19T18:51:04.527Z,3.75
2018-07-19T18:53:33.710Z,4.28
2018-07-19T18:56:01.977Z,3.92
2018-07-19T18:58:30.276Z,3.60
2018-07-19T19:00:58.721Z,3.75
2018-07-19T19:03:27.197Z,3.55
2018-07-19T19:05:55.505Z,4.00
2018-07-19T19:08:23.785Z,3.98
2018-07-19T19:10:51.959Z,4.12
2018-07-19T19:13:20.624Z,4.08
2018-07-19T19:15:49.033Z,3.83
2018-07-19T19:18:17.283Z,3.52
2018-07-19T19:20:45.441Z,4.00
2018-07-19T19:23:13.627Z,4.15
2018-07-19T19:25:41.789Z,4.20
2018-07-19T19:28:10.060Z,4.67
2018-07-19T19:30:38.327Z,4.25
2018-07-19T19:33:07.600Z,4.15
2018-07-19T19:35:36.287Z,4.10
2018-07-19T19:38:04.722Z,4.35
2018-07-19T19:40:33.231Z,3.62
2018-07-19T19:43:01.366Z,4.00
2018-07-19T19:45:29.450Z,3.40
2018-07-19T19:47:57.667Z,3.65
2018-07-19T19:50:26.236Z,3.70
2018-07-19T19:52:54.383Z,4.20
2018-07-19T19:55:22.571Z,3.85
2018-07-19T19:57:50.719Z,3.45
2018-07-19T20:00:19.499Z,4.20
2018-07-19T20:02:48.179Z,3.92
2018-07-19T20:05:16.795Z,3.80
2018-07-19T20:07:45.453Z,3.90
2018-07-19T20:10:13.751Z,3.90
2018-07-19T20:12:41.931Z,4.33
2018-07-19T20:15:11.090Z,4.10
2018-07-19T20:17:39.254Z,3.92
2018-07-19T20:20:07.815Z,3.90
2018-07-19T20:22:36.474Z,3.67
2018-07-19T20:25:05.317Z,3.62
2018-07-19T20:27:33.635Z,3.75
2018-07-19T20:30:01.956Z,4.03
2018-07-19T20:32:30.325Z,3.80
2018-07-19T20:34:58.606Z,3.98
2018-07-19T20:37:28.896Z,4.22
2018-07-19T20:39:59.912Z,5.15
2018-07-19T20:42:29.862Z,4.15
2018-07-19T20:44:58.092Z,4.35
2018-07-19T20:47:26.199Z,4.37
2018-07-19T20:49:59.212Z,4.53
2018-07-19T20:52:40.393Z,4.20
2018-07-19T20:55:09.706Z,4.03
2018-07-19T20:57:42.121Z,4.10
2018-07-19T21:00:13.715Z,4.12
2018-07-19T21:02:48.423Z,4.10
2018-07-19T21:05:16.647Z,3.67
2018-07-19T21:07:44.791Z,3.98
2018-07-19T21:10:12.907Z,3.50
2018-07-19T21:12:40.983Z,4.05
2018-07-19T21:15:09.063Z,4.42
2018-07-19T21:17:37.176Z,4.33
2018-07-19T21:20:06.541Z,4.10
2018-07-19T21:22:34.595Z,4.08
2018-07-19T21:25:03.047Z,4.30
2018-07-19T21:27:31.141Z,3.87
2018-07-19T21:29:59.747Z,3.98
2018-07-19T21:32:28.913Z,4.55
2018-07-19T21:34:57.039Z,4.40
2018-07-19T21:37:26.104Z,4.53
2018-07-19T21:39:54.825Z,4.65
2018-07-19T21:42:22.987Z,4.20
2018-07-19T21:44:51.061Z,4.22
2018-07-19T21:47:19.219Z,4.40
2018-07-19T21:49:47.317Z,5.00
2018-07-19T21:52:15.392Z,4.40
2018-07-19T21:54:43.448Z,4.40
2018-07-19T21:57:11.519Z,4.10
2018-07-19T21:59:39.711Z,4.22
2018-07-19T22:02:08.063Z,4.15
2018-07-19T22:04:36.503Z,4.47
2018-07-19T22:07:05.087Z,4.20
2018-07-19T22:09:33.257Z,4.85
2018-07-19T22:12:01.486Z,4.22
2018-07-19T22:14:29.613Z,4.40
2018-07-19T22:16:57.734Z,4.20
2018-07-19T22:19:25.821Z,4.85
2018-07-19T22:21:53.875Z,4.87
2018-07-19T22:24:21.987Z,5.40
2018-07-19T22:26:50.039Z,5.00
2018-07-19T22:29:18.093Z,4.80
2018-07-19T22:31:46.213Z,4.78
2018-07-19T22:34:14.263Z,4.90
2018-07-19T22:36:42.316Z,4.20
2018-07-19T22:39:11.691Z,5.35
2018-07-19T22:41:39.840Z,5.90
2018-07-19T22:44:08.482Z,5.30
2018-07-19T22:46:36.988Z,5.35
2018-07-19T22:49:05.501Z,5.17
2018-07-19T22:51:33.875Z,5.40
2018-07-19T22:54:02.587Z,5.30
2018-07-19T22:56:31.757Z,5.05
2018-07-19T22:59:00.979Z,5.70
2018-07-19T23:01:29.600Z,5.37
2018-07-19T23:03:59.672Z,5.00
2018-07-19T23:06:28.997Z,4.97
2018-07-19T23:08:57.898Z,5.15
2018-07-19T23:11:26.328Z,5.28
2018-07-19T23:13:54.466Z,5.12
2018-07-19T23:16:22.594Z,4.45
2018-07-19T23:18:50.647Z,4.53
2018-07-19T23:21:18.715Z,4.22
2018-07-19T23:23:47.159Z,4.70
2018-07-19T23:26:15.195Z,4.87
2018-07-19T23:28:43.237Z,4.85
2018-07-19T23:31:11.309Z,4.95
2018-07-19T23:33:39.378Z,5.10
2018-07-19T23:36:10.739Z,4.92
2018-07-19T23:38:51.008Z,4.47
2018-07-19T23:41:23.406Z,4.62
2018-07-19T23:43:55.052Z,5.15
2018-07-19T23:46:26.116Z,5.70
2018-07-19T23:48:55.312Z,5.72
2018-07-19T23:51:23.720Z,5.97
2018-07-19T23:53:51.808Z,5.72
2018-07-19T23:56:19.858Z,5.90
2018-07-19T23:58:47.920Z,6.35
